sensor_id;sensor_type;location;lat;lon;timestamp;pressure;altitude;pressure_sealevel;temperature;humidity
8697;BME280;4385;48.848;8.924;2023-12-29T00:01:13;97429.13;;;17.42;100.00
8697;BME280;4385;48.848;8.924;2023-12-29T00:03:38;97427.41;;;17.43;100.00
8697;BME280;4385;48.848;8.924;2023-12-29T00:06:04;97420.66;;;17.40;100.00
8697;BME280;4385;48.848;8.924;2023-12-29T00:08:30;97415.56;;;17.40;100.00
8697;BME280;4385;48.848;8.924;2023-12-29T00:10:56;97420.69;;;17.39;100.00
8697;BME280;4385;48.848;8.924;2023-12-29T00:13:21;97422.38;;;17.38;100.00
8697;BME280;4385;48.848;8.924;2023-12-29T00:15:52;97424.97;;;17.37;100.00
8697;BME280;4385;48.848;8.924;2023-12-29T00:18:17;97408.00;;;17.36;100.00
8697;BME280;4385;48.848;8.924;2023-12-29T00:20:43;97424.97;;;17.37;100.00
8697;BME280;4385;48.848;8.924;2023-12-29T00:23:08;97420.75;;;17.36;100.00
8697;BME280;4385;48.848;8.924;2023-12-29T00:25:36;97417.38;;;17.33;100.00
8697;BME280;4385;48.848;8.924;2023-12-29T00:28:02;97419.91;;;17.33;100.00
8697;BME280;4385;48.848;8.924;2023-12-29T00:30:28;97420.81;;;17.32;100.00
8697;BME280;4385;48.848;8.924;2023-12-29T00:32:54;97414.06;;;17.30;100.00
8697;BME280;4385;48.848;8.924;2023-12-29T00:35:20;97425.06;;;17.30;100.00
8697;BME280;4385;48.848;8.924;2023-12-29T00:37:45;97429.34;;;17.30;100.00
8697;BME280;4385;48.848;8.924;2023-12-29T00:40:10;97425.09;;;17.29;100.00
8697;BME280;4385;48.848;8.924;2023-12-29T00:42:36;97429.34;;;17.30;100.00
8697;BME280;4385;48.848;8.924;2023-12-29T00:45:01;97429.34;;;17.30;100.00
8697;BME280;4385;48.848;8.924;2023-12-29T00:47:26;97429.34;;;17.30;100.00
8697;BME280;4385;48.848;8.924;2023-12-29T00:49:52;97432.75;;;17.29;100.00
8697;BME280;4385;48.848;8.924;2023-12-29T00:52:17;97435.31;;;17.27;100.00
8697;BME280;4385;48.848;8.924;2023-12-29T00:54:43;97427.69;;;17.27;100.00
8697;BME280;4385;48.848;8.924;2023-12-29T00:57:09;97429.41;;;17.27;100.00
8697;BME280;4385;48.848;8.924;2023-12-29T00:59:37;97425.19;;;17.24;100.00
8697;BME280;4385;48.848;8.924;2023-12-29T01:02:03;97420.09;;;17.24;100.00
8697;BME280;4385;48.848;8.924;2023-12-29T01:04:28;97427.69;;;17.26;100.00
8697;BME280;4385;48.848;8.924;2023-12-29T01:06:54;97428.56;;;17.26;100.00
8697;BME280;4385;48.848;8.924;2023-12-29T01:09:19;97421.78;;;17.25;100.00
8697;BME280;4385;48.848;8.924;2023-12-29T01:11:44;97423.53;;;17.23;100.00
8697;BME280;4385;48.848;8.924;2023-12-29T01:14:10;97435.38;;;17.24;100.00
8697;BME280;4385;48.848;8.924;2023-12-29T01:16:35;97420.97;;;17.23;100.00
8697;BME280;4385;48.848;8.924;2023-12-29T01:19:00;97420.97;;;17.23;100.00
8697;BME280;4385;48.848;8.924;2023-12-29T01:21:26;97414.19;;;17.24;100.00
8697;BME280;4385;48.848;8.924;2023-12-29T01:23:51;97419.31;;;17.22;100.00
8697;BME280;4385;48.848;8.924;2023-12-29T01:26:16;97411.69;;;17.20;100.00
8697;BME280;4385;48.848;8.924;2023-12-29T01:28:41;97413.38;;;17.20;100.00
8697;BME280;4385;48.848;8.924;2023-12-29T01:31:07;97410.84;;;17.20;100.00
8697;BME280;4385;48.848;8.924;2023-12-29T01:33:34;97406.63;;;17.19;100.00
8697;BME280;4385;48.848;8.924;2023-12-29T01:35:59;97399.81;;;17.19;100.00
8697;BME280;4385;48.848;8.924;2023-12-29T01:38:24;97392.16;;;17.19;100.00
8697;BME280;4385;48.848;8.924;2023-12-29T01:40:49;97390.50;;;17.18;100.00
8697;BME280;4385;48.848;8.924;2023-12-29T01:43:15;97389.69;;;17.16;100.00
8697;BME280;4385;48.848;8.924;2023-12-29T01:45:40;97393.06;;;17.17;100.00
8697;BME280;4385;48.848;8.924;2023-12-29T01:48:06;97401.59;;;17.16;100.00
8697;BME280;4385;48.848;8.924;2023-12-29T01:50:33;97390.56;;;17.15;100.00
8697;BME280;4385;48.848;8.924;2023-12-29T01:52:59;97388.03;;;17.14;100.00
8697;BME280;4385;48.848;8.924;2023-12-29T01:55:25;97399.88;;;17.15;100.00
8697;BME280;4385;48.848;8.924;2023-12-29T01:57:51;97406.72;;;17.14;100.00
8697;BME280;4385;48.848;8.924;2023-12-29T02:00:17;97398.22;;;17.14;100.00
8697;BME280;4385;48.848;8.924;2023-12-29T02:02:44;97403.31;;;17.14;100.00
8697;BME280;4385;48.848;8.924;2023-12-29T02:05:13;97399.09;;;17.13;100.00
8697;BME280;4385;48.848;8.924;2023-12-29T02:07:42;97393.16;;;17.12;100.00
8697;BME280;4385;48.848;8.924;2023-12-29T02:10:09;97393.13;;;17.14;100.00
8697;BME280;4385;48.848;8.924;2023-12-29T02:12:35;97393.13;;;17.14;100.00
8697;BME280;4385;48.848;8.924;2023-12-29T02:15:03;97391.44;;;17.14;100.00
8697;BME280;4385;48.848;8.924;2023-12-29T02:17:39;97382.94;;;17.14;100.00
8697;BME280;4385;48.848;8.924;2023-12-29T02:20:07;97382.94;;;17.14;100.00
8697;BME280;4385;48.848;8.924;2023-12-29T02:22:33;97391.47;;;17.13;100.00
8697;BME280;4385;48.848;8.924;2023-12-29T02:24:58;97381.25;;;17.14;100.00
8697;BME280;4385;48.848;8.924;2023-12-29T02:32:33;97390.59;;;17.14;100.00
8697;BME280;4385;48.848;8.924;2023-12-29T02:35:01;97381.28;;;17.13;100.00
8697;BME280;4385;48.848;8.924;2023-12-29T02:37:28;97375.38;;;17.11;100.00
8697;BME280;4385;48.848;8.924;2023-12-29T02:39:55;97378.75;;;17.11;100.00
8697;BME280;4385;48.848;8.924;2023-12-29T02:42:21;97384.66;;;17.12;100.00
8697;BME280;4385;48.848;8.924;2023-12-29T02:44:47;97377.91;;;17.11;100.00
8697;BME280;4385;48.848;8.924;2023-12-29T02:47:12;97375.38;;;17.09;100.00
8697;BME280;4385;48.848;8.924;2023-12-29T02:49:37;97372.88;;;17.07;100.00
8697;BME280;4385;48.848;8.924;2023-12-29T02:52:03;97362.69;;;17.07;100.00
8697;BME280;4385;48.848;8.924;2023-12-29T02:54:28;97354.16;;;17.07;100.00
8697;BME280;4385;48.848;8.924;2023-12-29T02:56:53;97366.09;;;17.06;100.00
8697;BME280;4385;48.848;8.924;2023-12-29T02:59:18;97361.84;;;17.05;100.00
8697;BME280;4385;48.848;8.924;2023-12-29T03:01:44;97361.84;;;17.05;100.00
8697;BME280;4385;48.848;8.924;2023-12-29T03:04:10;97355.06;;;17.06;100.00
8697;BME280;4385;48.848;8.924;2023-12-29T03:06:35;97360.13;;;17.06;100.00
8697;BME280;4385;48.848;8.924;2023-12-29T03:09:00;97370.31;;;17.07;100.00
8697;BME280;4385;48.848;8.924;2023-12-29T03:11:27;97359.25;;;17.08;100.00
8697;BME280;4385;48.848;8.924;2023-12-29T03:13:52;97357.59;;;17.07;100.00
8697;BME280;4385;48.848;8.924;2023-12-29T03:16:17;97359.28;;;17.05;100.00
8697;BME280;4385;48.848;8.924;2023-12-29T03:18:42;97362.72;;;17.04;100.00
8697;BME280;4385;48.848;8.924;2023-12-29T03:21:08;97363.56;;;17.05;100.00
8697;BME280;4385;48.848;8.924;2023-12-29T03:23:33;97355.97;;;17.03;100.00
8697;BME280;4385;48.848;8.924;2023-12-29T03:25:59;97359.31;;;17.04;100.00
8697;BME280;4385;48.848;8.924;2023-12-29T03:28:24;97350.88;;;17.03;100.00
8697;BME280;4385;48.848;8.924;2023-12-29T03:30:50;97344.94;;;17.01;100.00
8697;BME280;4385;48.848;8.924;2023-12-29T03:33:15;97340.69;;;17.03;100.00
8697;BME280;4385;48.848;8.924;2023-12-29T03:35:40;97349.13;;;17.04;100.00
8697;BME280;4385;48.848;8.924;2023-12-29T03:38:05;97344.06;;;17.02;100.00
8697;BME280;4385;48.848;8.924;2023-12-29T03:40:31;97334.78;;;17.01;100.00
8697;BME280;4385;48.848;8.924;2023-12-29T03:42:56;97345.78;;;17.03;100.00
8697;BME280;4385;48.848;8.924;2023-12-29T03:45:21;97348.34;;;17.02;100.00
8697;BME280;4385;48.848;8.924;2023-12-29T03:47:46;97344.13;;;16.99;100.00
8697;BME280;4385;48.848;8.924;2023-12-29T03:50:12;97353.47;;;17.00;100.00
8697;BME280;4385;48.848;8.924;2023-12-29T03:52:37;97350.06;;;17.00;100.00
8697;BME280;4385;48.848;8.924;2023-12-29T03:55:03;97347.56;;;16.98;100.00
8697;BME280;4385;48.848;8.924;2023-12-29T03:57:28;97345.88;;;16.97;100.00
8697;BME280;4385;48.848;8.924;2023-12-29T03:59:53;97342.41;;;17.01;100.00
8697;BME280;4385;48.848;8.924;2023-12-29T04:02:18;97344.13;;;16.99;100.00
8697;BME280;4385;48.848;8.924;2023-12-29T04:04:44;97339.03;;;16.99;100.00
8697;BME280;4385;48.848;8.924;2023-12-29T04:07:09;97345.00;;;16.98;100.00
8697;BME280;4385;48.848;8.924;2023-12-29T04:09:34;97339.91;;;16.98;100.00
8697;BME280;4385;48.848;8.924;2023-12-29T04:11:59;97327.22;;;16.97;100.00
8697;BME280;4385;48.848;8.924;2023-12-29T04:14:25;97318.72;;;16.96;100.00
8697;BME280;4385;48.848;8.924;2023-12-29T04:16:50;97319.59;;;16.97;100.00
8697;BME280;4385;48.848;8.924;2023-12-29T04:19:15;97321.28;;;16.96;100.00
8697;BME280;4385;48.848;8.924;2023-12-29T04:21:41;97325.56;;;16.95;100.00
8697;BME280;4385;48.848;8.924;2023-12-29T04:24:06;97319.63;;;16.95;100.00
8697;BME280;4385;48.848;8.924;2023-12-29T04:26:38;97320.50;;;16.94;100.00
8697;BME280;4385;48.848;8.924;2023-12-29T04:29:03;97325.56;;;16.94;100.00
8697;BME280;4385;48.848;8.924;2023-12-29T04:31:28;97326.44;;;16.93;100.00
8697;BME280;4385;48.848;8.924;2023-12-29T04:33:54;97323.03;;;16.94;100.00
8697;BME280;4385;48.848;8.924;2023-12-29T04:36:19;97329.84;;;16.92;100.00
8697;BME280;4385;48.848;8.924;2023-12-29T04:38:44;97334.94;;;16.92;100.00
8697;BME280;4385;48.848;8.924;2023-12-29T04:41:12;97332.41;;;16.92;100.00
8697;BME280;4385;48.848;8.924;2023-12-29T04:43:37;97330.69;;;16.92;100.00
8697;BME280;4385;48.848;8.924;2023-12-29T04:46:03;97336.59;;;16.93;100.00
8697;BME280;4385;48.848;8.924;2023-12-29T04:48:28;97335.78;;;16.92;100.00
8697;BME280;4385;48.848;8.924;2023-12-29T04:50:53;97334.06;;;16.93;100.00
8697;BME280;4385;48.848;8.924;2023-12-29T04:53:19;97341.69;;;16.93;100.00
8697;BME280;4385;48.848;8.924;2023-12-29T04:55:44;97341.69;;;16.93;100.00
8697;BME280;4385;48.848;8.924;2023-12-29T04:58:09;97333.25;;;16.92;100.00
8697;BME280;4385;48.848;8.924;2023-12-29T05:00:34;97340.03;;;16.92;100.00
8697;BME280;4385;48.848;8.924;2023-12-29T05:03:00;97334.94;;;16.92;100.00
8697;BME280;4385;48.848;8.924;2023-12-29T05:05:25;97344.25;;;16.93;100.00
8697;BME280;4385;48.848;8.924;2023-12-29T05:07:50;97339.16;;;16.93;100.00
8697;BME280;4385;48.848;8.924;2023-12-29T05:10:15;97340.84;;;16.94;100.00
8697;BME280;4385;48.848;8.924;2023-12-29T05:12:41;97337.47;;;16.93;100.00
8697;BME280;4385;48.848;8.924;2023-12-29T05:15:06;97341.69;;;16.93;100.00
8697;BME280;4385;48.848;8.924;2023-12-29T05:17:31;97340.03;;;16.92;100.00
8697;BME280;4385;48.848;8.924;2023-12-29T05:19:57;97342.56;;;16.92;100.00
8697;BME280;4385;48.848;8.924;2023-12-29T05:22:22;97342.56;;;16.92;100.00
8697;BME280;4385;48.848;8.924;2023-12-29T05:24:47;97340.88;;;16.92;100.00
8697;BME280;4385;48.848;8.924;2023-12-29T05:27:13;97343.41;;;16.94;100.00
8697;BME280;4385;48.848;8.924;2023-12-29T05:29:38;97338.31;;;16.94;100.00
8697;BME280;4385;48.848;8.924;2023-12-29T05:32:05;97342.53;;;16.95;100.00
8697;BME280;4385;48.848;8.924;2023-12-29T05:34:30;97337.38;;;16.98;100.00
8697;BME280;4385;48.848;8.924;2023-12-29T05:36:55;97342.41;;;17.01;100.00
8697;BME280;4385;48.848;8.924;2023-12-29T05:39:21;97350.88;;;17.03;100.00
8697;BME280;4385;48.848;8.924;2023-12-29T05:41:46;97344.00;;;17.05;100.00
8697;BME280;4385;48.848;8.924;2023-12-29T05:44:11;97344.88;;;17.06;100.00
8697;BME280;4385;48.848;8.924;2023-12-29T05:46:37;97345.72;;;17.06;100.00
8697;BME280;4385;48.848;8.924;2023-12-29T05:49:02;97349.97;;;17.06;100.00
8697;BME280;4385;48.848;8.924;2023-12-29T05:51:27;97351.63;;;17.08;100.00
8697;BME280;4385;48.848;8.924;2023-12-29T05:53:52;97355.88;;;17.10;100.00
8697;BME280;4385;48.848;8.924;2023-12-29T05:56:18;97355.88;;;17.10;100.00
8697;BME280;4385;48.848;8.924;2023-12-29T05:58:43;97347.34;;;17.11;100.00
8697;BME280;4385;48.848;8.924;2023-12-29T06:01:09;97354.13;;;17.12;100.00
8697;BME280;4385;48.848;8.924;2023-12-29T06:03:35;97348.19;;;17.13;100.00
8697;BME280;4385;48.848;8.924;2023-12-29T06:06:00;97343.06;;;17.14;100.00
8697;BME280;4385;48.848;8.924;2023-12-29T06:08:25;97349.81;;;17.15;100.00
8697;BME280;4385;48.848;8.924;2023-12-29T06:10:51;97340.47;;;17.16;100.00
8697;BME280;4385;48.848;8.924;2023-12-29T06:13:16;97345.50;;;17.19;100.00
8697;BME280;4385;48.848;8.924;2023-12-29T06:15:41;97342.94;;;17.20;100.00
8697;BME280;4385;48.848;8.924;2023-12-29T06:18:07;97349.66;;;17.23;100.00
8697;BME280;4385;48.848;8.924;2023-12-29T06:20:32;97340.31;;;17.25;100.00
8697;BME280;4385;48.848;8.924;2023-12-29T06:22:58;97344.50;;;17.26;100.00
8697;BME280;4385;48.848;8.924;2023-12-29T06:25:24;97339.38;;;17.28;100.00
8697;BME280;4385;48.848;8.924;2023-12-29T06:27:49;97340.25;;;17.28;100.00
8697;BME280;4385;48.848;8.924;2023-12-29T06:30:15;97340.22;;;17.30;100.00
8697;BME280;4385;48.848;8.924;2023-12-29T06:32:41;97338.47;;;17.30;100.00
8697;BME280;4385;48.848;8.924;2023-12-29T06:35:06;97338.47;;;17.30;100.00
8697;BME280;4385;48.848;8.924;2023-12-29T06:37:32;97330.00;;;17.31;100.00
8697;BME280;4385;48.848;8.924;2023-12-29T06:39:58;97337.59;;;17.33;100.00
8697;BME280;4385;48.848;8.924;2023-12-29T06:42:23;97334.19;;;17.34;100.00
8697;BME280;4385;48.848;8.924;2023-12-29T06:44:48;97331.66;;;17.32;100.00
8697;BME280;4385;48.848;8.924;2023-12-29T06:47:14;97334.22;;;17.32;100.00
8697;BME280;4385;48.848;8.924;2023-12-29T06:49:39;97332.50;;;17.33;100.00
8697;BME280;4385;48.848;8.924;2023-12-29T06:52:05;97331.63;;;17.34;100.00
8697;BME280;4385;48.848;8.924;2023-12-29T06:54:31;97318.88;;;17.36;100.00
8697;BME280;4385;48.848;8.924;2023-12-29T06:56:56;97319.75;;;17.35;100.00
8697;BME280;4385;48.848;8.924;2023-12-29T06:59:22;97314.66;;;17.35;100.00
8697;BME280;4385;48.848;8.924;2023-12-29T07:01:47;97312.91;;;17.35;100.00
8697;BME280;4385;48.848;8.924;2023-12-29T07:04:13;97323.06;;;17.37;100.00
8697;BME280;4385;48.848;8.924;2023-12-29T07:06:39;97321.41;;;17.36;100.00
8697;BME280;4385;48.848;8.924;2023-12-29T07:09:04;97319.72;;;17.36;100.00
8697;BME280;4385;48.848;8.924;2023-12-29T07:11:30;97319.75;;;17.35;100.00
8697;BME280;4385;48.848;8.924;2023-12-29T07:13:56;97315.47;;;17.35;100.00
8697;BME280;4385;48.848;8.924;2023-12-29T07:16:21;97315.47;;;17.35;100.00
8697;BME280;4385;48.848;8.924;2023-12-29T07:18:47;97320.56;;;17.35;100.00
8697;BME280;4385;48.848;8.924;2023-12-29T07:21:14;97317.97;;;17.37;100.00
8697;BME280;4385;48.848;8.924;2023-12-29T07:23:40;97317.97;;;17.37;100.00
8697;BME280;4385;48.848;8.924;2023-12-29T07:26:06;97317.13;;;17.38;100.00
8697;BME280;4385;48.848;8.924;2023-12-29T07:28:32;97322.19;;;17.39;100.00
8697;BME280;4385;48.848;8.924;2023-12-29T07:30:57;97319.66;;;17.39;100.00
8697;BME280;4385;48.848;8.924;2023-12-29T07:33:23;97324.72;;;17.41;100.00
8697;BME280;4385;48.848;8.924;2023-12-29T07:35:49;97322.16;;;17.41;100.00
8697;BME280;4385;48.848;8.924;2023-12-29T07:38:14;97312.78;;;17.41;100.00
8697;BME280;4385;48.848;8.924;2023-12-29T07:40:40;97311.97;;;17.41;100.00
8697;BME280;4385;48.848;8.924;2023-12-29T07:43:05;97311.09;;;17.42;100.00
8697;BME280;4385;48.848;8.924;2023-12-29T07:45:30;97310.22;;;17.43;100.00
8697;BME280;4385;48.848;8.924;2023-12-29T07:47:56;97313.59;;;17.45;100.00
8697;BME280;4385;48.848;8.924;2023-12-29T07:50:22;97309.38;;;17.44;100.00
8697;BME280;4385;48.848;8.924;2023-12-29T07:52:47;97317.78;;;17.46;100.00
8697;BME280;4385;48.848;8.924;2023-12-29T07:55:12;97320.25;;;17.51;100.00
8697;BME280;4385;48.848;8.924;2023-12-29T07:57:38;97318.53;;;17.51;100.00
8697;BME280;4385;48.848;8.924;2023-12-29T08:00:03;97324.47;;;17.53;100.00
8697;BME280;4385;48.848;8.924;2023-12-29T08:02:31;97329.50;;;17.56;100.00
8697;BME280;4385;48.848;8.924;2023-12-29T08:04:56;97322.66;;;17.57;100.00
8697;BME280;4385;48.848;8.924;2023-12-29T08:07:22;97331.13;;;17.59;100.00
8697;BME280;4385;48.848;8.924;2023-12-29T08:09:47;97326.84;;;17.61;100.00
8697;BME280;4385;48.848;8.924;2023-12-29T08:12:12;97324.28;;;17.61;100.00
8697;BME280;4385;48.848;8.924;2023-12-29T08:14:38;97317.47;;;17.62;100.00
8697;BME280;4385;48.848;8.924;2023-12-29T08:17:04;97322.56;;;17.62;100.00
8697;BME280;4385;48.848;8.924;2023-12-29T08:19:29;97328.50;;;17.62;100.00
8697;BME280;4385;48.848;8.924;2023-12-29T08:21:54;97324.25;;;17.63;100.00
8697;BME280;4385;48.848;8.924;2023-12-29T08:24:19;97330.22;;;17.62;100.00
8697;BME280;4385;48.848;8.924;2023-12-29T08:26:47;97327.66;;;17.62;100.00
8697;BME280;4385;48.848;8.924;2023-12-29T08:29:15;97332.75;;;17.62;100.00
8697;BME280;4385;48.848;8.924;2023-12-29T08:31:42;97333.63;;;17.61;100.00
8697;BME280;4385;48.848;8.924;2023-12-29T08:34:08;97337.06;;;17.60;100.00
8697;BME280;4385;48.848;8.924;2023-12-29T08:36:33;97338.72;;;17.61;100.00
8697;BME280;4385;48.848;8.924;2023-12-29T08:38:59;97337.84;;;17.62;100.00
8697;BME280;4385;48.848;8.924;2023-12-29T08:41:24;97336.19;;;17.61;100.00
8697;BME280;4385;48.848;8.924;2023-12-29T08:43:49;97337.88;;;17.60;100.00
8697;BME280;4385;48.848;8.924;2023-12-29T08:46:14;97337.03;;;17.61;100.00
8697;BME280;4385;48.848;8.924;2023-12-29T08:48:40;97344.69;;;17.61;100.00
8697;BME280;4385;48.848;8.924;2023-12-29T08:51:05;97342.13;;;17.61;100.00
8697;BME280;4385;48.848;8.924;2023-12-29T08:53:31;97353.16;;;17.62;100.00
8697;BME280;4385;48.848;8.924;2023-12-29T08:56:00;97352.22;;;17.66;100.00
8697;BME280;4385;48.848;8.924;2023-12-29T08:58:25;97359.00;;;17.67;100.00
8697;BME280;4385;48.848;8.924;2023-12-29T09:00:51;97347.09;;;17.67;100.00
8697;BME280;4385;48.848;8.924;2023-12-29T09:03:16;97341.09;;;17.70;100.00
8697;BME280;4385;48.848;8.924;2023-12-29T09:05:42;97347.84;;;17.71;100.00
8697;BME280;4385;48.848;8.924;2023-12-29T09:08:07;97351.28;;;17.70;100.00
8697;BME280;4385;48.848;8.924;2023-12-29T09:10:32;97338.53;;;17.70;100.00
8697;BME280;4385;48.848;8.924;2023-12-29T09:12:57;97348.72;;;17.70;100.00
8697;BME280;4385;48.848;8.924;2023-12-29T09:15:23;97353.00;;;17.68;100.00
8697;BME280;4385;48.848;8.924;2023-12-29T09:17:49;97356.38;;;17.70;100.00
8697;BME280;4385;48.848;8.924;2023-12-29T09:20:14;97354.72;;;17.69;100.00
8697;BME280;4385;48.848;8.924;2023-12-29T09:22:40;97351.28;;;17.70;100.00
8697;BME280;4385;48.848;8.924;2023-12-29T09:25:05;97357.22;;;17.70;100.00
8697;BME280;4385;48.848;8.924;2023-12-29T09:27:30;97363.13;;;17.71;100.00
8697;BME280;4385;48.848;8.924;2023-12-29T09:29:56;97368.22;;;17.73;100.00
8697;BME280;4385;48.848;8.924;2023-12-29T09:32:21;97359.75;;;17.72;100.00
8697;BME280;4385;48.848;8.924;2023-12-29T09:34:46;97364.81;;;17.74;100.00
8697;BME280;4385;48.848;8.924;2023-12-29T09:37:12;97375.00;;;17.74;100.00
8697;BME280;4385;48.848;8.924;2023-12-29T09:39:37;97382.66;;;17.74;100.00
8697;BME280;4385;48.848;8.924;2023-12-29T09:42:03;97385.16;;;17.75;100.00
8697;BME280;4385;48.848;8.924;2023-12-29T09:44:31;97380.06;;;17.75;100.00
8697;BME280;4385;48.848;8.924;2023-12-29T09:47:01;97384.25;;;17.78;100.00
8697;BME280;4385;48.848;8.924;2023-12-29T09:49:27;97386.69;;;17.82;100.00
8697;BME280;4385;48.848;8.924;2023-12-29T09:51:57;97392.56;;;17.88;100.00
8697;BME280;4385;48.848;8.924;2023-12-29T09:54:23;97381.47;;;17.89;100.00
8697;BME280;4385;48.848;8.924;2023-12-29T09:56:49;97394.22;;;17.89;100.00
8697;BME280;4385;48.848;8.924;2023-12-29T09:59:16;97388.28;;;17.88;100.00
8697;BME280;4385;48.848;8.924;2023-12-29T10:01:42;97396.84;;;17.86;100.00
8697;BME280;4385;48.848;8.924;2023-12-29T10:04:09;97382.44;;;17.83;100.00
8697;BME280;4385;48.848;8.924;2023-12-29T10:06:36;97388.38;;;17.83;100.00
8697;BME280;4385;48.848;8.924;2023-12-29T10:09:04;97382.44;;;17.83;100.00
8697;BME280;4385;48.848;8.924;2023-12-29T10:11:34;97373.06;;;17.83;100.00
8697;BME280;4385;48.848;8.924;2023-12-29T10:14:03;97377.31;;;17.85;100.00
8697;BME280;4385;48.848;8.924;2023-12-29T10:16:42;97373.91;;;17.84;100.00
8697;BME280;4385;48.848;8.924;2023-12-29T10:22:06;97364.56;;;17.85;100.00
8697;BME280;4385;48.848;8.924;2023-12-29T10:24:34;97357.78;;;17.83;100.00
8697;BME280;4385;48.848;8.924;2023-12-29T10:26:59;97360.34;;;17.83;100.00
8697;BME280;4385;48.848;8.924;2023-12-29T10:29:27;97358.66;;;17.82;100.00
8697;BME280;4385;48.848;8.924;2023-12-29T10:31:52;97350.97;;;17.84;100.00
8697;BME280;4385;48.848;8.924;2023-12-29T10:34:24;97352.63;;;17.87;100.00
8697;BME280;4385;48.848;8.924;2023-12-29T10:36:57;97352.63;;;17.87;100.00
8697;BME280;4385;48.848;8.924;2023-12-29T10:39:23;97344.13;;;17.88;100.00
8697;BME280;4385;48.848;8.924;2023-12-29T10:41:49;97346.53;;;17.94;100.00
8697;BME280;4385;48.848;8.924;2023-12-29T10:44:16;97348.19;;;17.95;100.00
8697;BME280;4385;48.848;8.924;2023-12-29T10:46:41;97340.59;;;17.93;100.00
8697;BME280;4385;48.848;8.924;2023-12-29T10:49:08;97338.03;;;17.93;100.00
8697;BME280;4385;48.848;8.924;2023-12-29T10:51:34;97342.28;;;17.93;100.00
8697;BME280;4385;48.848;8.924;2023-12-29T10:53:59;97341.41;;;17.95;100.00
8697;BME280;4385;48.848;8.924;2023-12-29T10:56:25;97345.66;;;17.95;100.00
8697;BME280;4385;48.848;8.924;2023-12-29T10:59:02;97337.03;;;17.99;100.00
8697;BME280;4385;48.848;8.924;2023-12-29T11:01:29;97333.72;;;17.97;100.00
8697;BME280;4385;48.848;8.924;2023-12-29T11:04:05;97329.41;;;17.99;100.00
8697;BME280;4385;48.848;8.924;2023-12-29T11:06:43;97317.50;;;18.00;100.00
8697;BME280;4385;48.848;8.924;2023-12-29T11:09:11;97318.41;;;17.97;100.00
8697;BME280;4385;48.848;8.924;2023-12-29T11:11:37;97320.97;;;17.97;100.00
8697;BME280;4385;48.848;8.924;2023-12-29T11:14:02;97316.75;;;17.94;100.00
8697;BME280;4385;48.848;8.924;2023-12-29T11:16:29;97308.28;;;17.94;100.00
8697;BME280;4385;48.848;8.924;2023-12-29T11:18:56;97313.38;;;17.94;100.00
8697;BME280;4385;48.848;8.924;2023-12-29T11:21:21;97307.47;;;17.92;100.00
8697;BME280;4385;48.848;8.924;2023-12-29T11:23:48;97305.78;;;17.92;100.00
8697;BME280;4385;48.848;8.924;2023-12-29T11:26:14;97309.19;;;17.91;100.00
8697;BME280;4385;48.848;8.924;2023-12-29T11:28:40;97304.13;;;17.90;100.00
8697;BME280;4385;48.848;8.924;2023-12-29T11:31:06;97306.63;;;17.91;100.00
8697;BME280;4385;48.848;8.924;2023-12-29T11:33:35;97304.94;;;17.92;100.00
8697;BME280;4385;48.848;8.924;2023-12-29T11:36:12;97290.47;;;17.92;100.00
8697;BME280;4385;48.848;8.924;2023-12-29T11:41:43;97293.84;;;17.93;100.00
8697;BME280;4385;48.848;8.924;2023-12-29T11:44:11;97292.09;;;17.95;100.00
8697;BME280;4385;48.848;8.924;2023-12-29T11:49:03;97281.94;;;17.93;100.00
8697;BME280;4385;48.848;8.924;2023-12-29T11:51:43;97287.06;;;17.93;100.00
8697;BME280;4385;48.848;8.924;2023-12-29T11:54:09;97281.09;;;17.93;100.00
8697;BME280;4385;48.848;8.924;2023-12-29T11:56:39;97267.53;;;17.92;100.00
8697;BME280;4385;48.848;8.924;2023-12-29T12:01:42;97261.56;;;17.93;100.00
8697;BME280;4385;48.848;8.924;2023-12-29T12:04:39;97259.00;;;17.93;100.00
8697;BME280;4385;48.848;8.924;2023-12-29T12:09:49;97245.34;;;17.96;100.00
8697;BME280;4385;48.848;8.924;2023-12-29T12:12:38;97236.88;;;17.95;100.00
8697;BME280;4385;48.848;8.924;2023-12-29T12:17:58;97239.31;;;18.00;100.00
8697;BME280;4385;48.848;8.924;2023-12-29T12:20:24;97239.31;;;18.00;100.00
8697;BME280;4385;48.848;8.924;2023-12-29T12:22:59;97240.13;;;18.01;100.00
8697;BME280;4385;48.848;8.924;2023-12-29T12:25:26;97242.66;;;18.02;100.00
8697;BME280;4385;48.848;8.924;2023-12-29T12:27:55;97240.91;;;18.04;100.00
8697;BME280;4385;48.848;8.924;2023-12-29T12:30:21;97242.56;;;18.05;100.00
8697;BME280;4385;48.848;8.924;2023-12-29T12:32:56;97242.53;;;18.07;100.00
8697;BME280;4385;48.848;8.924;2023-12-29T12:35:22;97260.34;;;18.08;100.00
8697;BME280;4385;48.848;8.924;2023-12-29T12:37:47;97250.13;;;18.08;100.00
8697;BME280;4385;48.848;8.924;2023-12-29T12:40:24;97251.84;;;18.10;100.00
8697;BME280;4385;48.848;8.924;2023-12-29T12:42:50;97247.56;;;18.10;100.00
8697;BME280;4385;48.848;8.924;2023-12-29T12:45:20;97247.56;;;18.12;100.00
8697;BME280;4385;48.848;8.924;2023-12-29T12:47:52;97244.19;;;18.11;100.00
8697;BME280;4385;48.848;8.924;2023-12-29T12:50:20;97242.44;;;18.12;100.00
8697;BME280;4385;48.848;8.924;2023-12-29T12:52:45;97245.84;;;18.12;100.00
8697;BME280;4385;48.848;8.924;2023-12-29T12:55:11;97246.72;;;18.11;100.00
8697;BME280;4385;48.848;8.924;2023-12-29T12:57:38;97253.50;;;18.11;100.00
8697;BME280;4385;48.848;8.924;2023-12-29T13:00:04;97244.19;;;18.11;100.00
8697;BME280;4385;48.848;8.924;2023-12-29T13:02:31;97239.91;;;18.12;100.00
8697;BME280;4385;48.848;8.924;2023-12-29T13:04:57;97239.09;;;18.11;100.00
8697;BME280;4385;48.848;8.924;2023-12-29T13:07:23;97237.34;;;18.12;100.00
8697;BME280;4385;48.848;8.924;2023-12-29T13:09:49;97235.59;;;18.14;100.00
8697;BME280;4385;48.848;8.924;2023-12-29T13:12:16;97244.09;;;18.14;100.00
8697;BME280;4385;48.848;8.924;2023-12-29T13:14:42;97251.72;;;18.16;100.00
8697;BME280;4385;48.848;8.924;2023-12-29T13:17:12;97242.34;;;18.16;100.00
8697;BME280;4385;48.848;8.924;2023-12-29T13:19:38;97241.44;;;18.19;100.00
8697;BME280;4385;48.848;8.924;2023-12-29T13:22:06;97242.22;;;18.21;100.00
8697;BME280;4385;48.848;8.924;2023-12-29T13:24:33;97243.03;;;18.23;100.00
8697;BME280;4385;48.848;8.924;2023-12-29T13:27:04;97231.13;;;18.24;100.00